Date,TemperatureHighF,TemperatureAvgF,TemperatureLowF,DewpointHighF,DewpointAvgF,DewpointLowF,HumidityHigh,HumidityAvg,HumidityLow,PressureMaxIn,PressureMinIn,WindSpeedMaxMPH,WindSpeedAvgMPH,GustSpeedMaxMPH,PrecipitationSumIn
2013-1-1,43.1,37.1,33.7,38.6,33.8,30.4,89,88,83,30.50,30.35,6,0,6,0.00
2013-1-2,48.1,36.7,32.9,40.6,32.4,29.9,92,85,55,30.36,30.19,9,0,9,0.01
2013-1-3,45.8,37.3,31.0,36.5,31.5,28.0,90,80,54,30.19,30.07,13,1,13,0.21
2013-1-4,47.4,44.3,40.2,43.9,40.9,36.6,89,88,87,30.28,30.11,25,2,25,0.01
2013-1-5,45.1,43.8,42.3,41.5,40.0,38.7,89,86,83,30.18,30.08,11,1,11,0.06
2013-1-6,46.1,44.0,42.6,41.6,40.3,39.3,89,87,82,30.14,29.93,25,4,25,0.01
2013-1-7,54.7,47.8,43.8,48.9,44.2,40.5,92,87,79,30.13,29.76,24,2,29,0.00
2013-1-8,52.7,47.5,43.3,48.8,44.1,40.0,92,88,86,30.13,29.67,33,4,33,0.25
2013-1-9,51.4,43.5,37.8,48.0,40.2,34.6,89,88,87,29.93,29.65,18,1,18,0.79
2013-1-10,40.4,37.0,34.1,37.4,33.5,27.3,90,87,70,30.11,29.93,12,0,12,0.03
2013-1-11,40.5,33.6,30.6,30.8,28.4,26.2,89,82,58,30.32,30.11,10,0,10,0.00
2013-1-12,39.1,32.6,29.9,31.5,28.7,27.1,89,85,70,30.44,30.31,4,0,9,0.01
2013-1-13,37.2,32.6,29.1,31.6,29.0,26.3,89,86,72,30.49,30.43,5,0,5,0.00
2013-1-14,38.0,35.4,33.6,33.4,31.3,29.9,88,85,79,30.56,30.46,7,0,7,0.00
2013-1-15,43.4,38.0,33.6,38.0,34.3,30.4,89,86,77,30.68,30.56,7,0,7,0.00
2013-1-16,45.2,36.7,32.7,38.5,32.8,29.5,89,86,74,30.66,30.51,10,0,10,0.01
2013-1-17,39.8,37.1,33.8,36.8,33.9,30.5,89,88,87,30.51,30.29,6,0,6,0.00
2013-1-18,39.7,38.4,37.2,36.6,35.1,33.7,92,88,87,30.34,30.25,4,0,4,0.00
2013-1-19,40.0,38.7,37.3,37.0,35.7,34.3,89,89,89,30.38,30.33,6,0,6,0.00
2013-1-20,47.2,41.0,36.8,41.7,37.5,33.6,89,87,79,30.39,30.26,9,0,9,0.00
2013-1-21,39.9,38.3,37.1,37.5,35.2,34.2,92,88,87,30.26,30.12,9,0,9,0.00
2013-1-22,39.5,35.5,35.8,36.5,26.8,-99.9,90,84,88,30.13,29.90,5,-58,5,0.00
2013-1-23,45.4,14.2,43.5,31.8,-59.8,-99.9,63,15,43,30.12,29.83,15,-680,15,0.22
2013-1-24,46.2,26.9,41.5,36.1,-21.1,-99.9,77,34,34,30.19,30.01,24,-383,24,0.03
2013-1-25,51.0,17.6,45.9,44.7,-49.5,-99.9,85,25,43,30.04,29.88,19,-633,19,0.00
2013-1-26,47.2,25.8,38.8,40.0,-22.5,-99.9,76,35,44,30.02,29.85,15,-400,15,0.03
2013-1-27,45.4,17.3,40.1,34.6,-48.5,-99.9,72,23,39,30.04,29.97,12,-596,12,0.00
2013-1-28,42.5,21.8,32.0,32.0,-20.3,-99.9,43,8,1,30.07,29.99,6,-379,6,0.18
2013-1-29,45.5,3.7,44.3,17.4,-90.2,-99.9,33,3,32,30.31,30.07,4,-916,4,0.02
2013-1-30,-200.0,0.0,200.0,-99.9,-99.9,-99.9,0,0,100,30.39,30.30,5,-840,5,0.00
2013-1-31,50.5,7.3,49.5,46.7,-78.7,-99.9,88,13,86,30.40,30.26,16,-725,16,0.01
2013-2-1,51.2,14.9,46.0,46.1,-57.9,-99.9,88,21,39,30.41,30.32,9,-696,9,0.00
2013-2-2,50.6,17.4,43.4,44.0,-47.8,-99.9,78,26,50,30.38,30.24,12,-613,12,0.00
2013-2-3,50.2,19.1,45.4,36.9,-47.7,-99.9,65,21,37,30.29,30.18,9,-599,9,0.00
2013-2-4,50.2,28.4,45.4,43.6,-15.6,-99.9,78,46,64,30.19,29.85,16,-395,16,0.04
2013-2-5,51.1,46.7,44.6,44.0,36.1,28.5,77,67,49,29.90,29.79,29,8,29,0.08
2013-2-6,50.7,45.8,44.0,43.4,33.6,27.7,76,63,47,30.00,29.76,24,6,24,0.13
2013-2-7,52.7,43.2,37.5,42.7,32.8,21.8,77,67,49,30.18,29.76,30,5,30,0.09
2013-2-8,46.7,42.4,38.6,39.9,30.1,24.6,77,62,48,30.29,30.18,9,1,12,0.01
2013-2-9,46.1,43.8,42.4,33.1,25.0,20.1,65,48,38,30.33,30.25,9,0,9,0.04
2013-2-10,47.6,43.1,39.5,37.7,25.7,16.6,78,52,36,30.37,30.31,7,0,7,0.00
2013-2-11,47.5,44.8,43.1,41.0,29.8,21.0,78,56,41,30.34,30.31,14,1,14,0.03
2013-2-12,51.5,47.6,45.0,44.2,31.0,20.9,76,54,37,30.39,30.24,19,2,19,0.00
2013-2-13,48.4,46.6,44.2,40.9,35.1,27.6,76,65,49,30.49,30.28,15,0,15,0.01
2013-2-14,50.8,47.4,45.4,40.6,28.3,23.0,71,48,38,30.55,30.47,13,1,13,0.09
2013-2-15,52.2,47.0,40.3,45.2,30.1,21.1,77,54,36,30.54,30.16,13,2,13,0.00
2013-2-16,50.8,45.4,39.4,37.7,23.9,18.4,73,43,32,30.18,30.10,14,0,14,0.15
2013-2-17,45.2,42.6,39.6,38.2,27.1,19.5,78,55,42,30.24,30.10,7,0,7,0.01
2013-2-18,49.4,42.7,38.9,42.3,28.2,16.3,79,59,36,30.10,29.75,20,2,20,0.01
2013-2-19,49.9,42.7,36.1,41.8,31.5,19.9,78,65,46,30.00,29.73,19,2,19,0.00
2013-2-20,46.9,41.8,35.2,38.6,25.2,16.5,78,53,38,30.03,29.97,18,1,18,0.04
2013-2-21,49.4,43.1,39.7,42.3,30.2,20.5,78,61,43,30.05,29.97,26,4,26,0.01
2013-2-22,50.1,43.2,37.0,42.8,31.1,20.1,77,63,48,30.01,29.63,37,7,37,0.13
2013-2-23,51.2,41.9,36.4,43.8,27.2,17.9,77,56,42,30.35,29.88,11,1,11,0.03
2013-2-24,48.1,43.3,39.8,40.9,35.4,30.0,77,73,64,30.35,29.93,32,8,32,0.04
2013-2-25,51.3,43.0,35.1,43.0,30.9,-99.9,78,64,51,30.30,29.85,18,-8,18,0.07
2013-2-26,47.4,41.8,34.3,39.9,29.5,15.4,77,63,41,30.33,30.17,26,5,26,0.02
2013-2-27,52.5,44.7,38.9,44.0,30.6,20.6,77,58,40,30.29,30.17,22,2,22,0.01
2013-2-28,54.5,48.9,43.7,42.3,28.2,17.7,69,46,32,30.26,30.16,35,6,35,0.10
2013-3-1,55.5,53.5,51.7,46.7,42.3,34.7,73,66,48,30.29,30.22,37,14,38,0.00
2013-3-2,56.7,49.6,40.5,48.1,37.1,20.9,74,62,45,30.23,30.03,30,7,30,0.40
2013-3-3,52.1,41.3,35.3,41.4,26.3,14.0,77,57,36,30.30,30.18,13,1,13,0.00
2013-3-4,51.0,40.5,34.2,41.1,26.7,14.1,78,59,39,30.30,29.93,14,1,14,0.01
2013-3-5,52.1,43.8,37.4,43.5,29.0,18.6,76,57,40,29.93,29.73,17,1,17,0.10
2013-3-6,46.0,44.6,43.1,31.2,25.0,18.9,57,46,37,29.88,29.59,17,2,17,0.27
2013-3-7,53.2,46.1,42.9,45.5,24.4,16.2,75,44,32,30.09,29.88,9,0,9,0.13
2013-3-8,51.5,44.6,38.0,43.8,27.2,16.6,77,52,33,30.24,30.07,16,2,16,0.00
2013-3-9,55.6,42.8,36.8,45.9,23.8,14.2,74,48,31,30.48,30.24,8,1,9,0.01
2013-3-10,47.8,44.1,38.6,33.8,22.9,15.6,61,43,33,30.49,30.42,7,1,7,0.00
2013-3-11,51.4,47.6,44.1,43.6,28.9,17.0,76,51,32,30.44,30.11,20,1,20,0.01
2013-3-12,55.1,52.8,50.4,44.5,39.8,29.0,71,62,43,30.11,29.99,27,11,34,0.00
2013-3-13,54.6,53.3,51.9,42.5,39.3,35.0,68,59,50,30.14,30.03,32,8,32,0.02
2013-3-14,56.1,51.7,49.5,46.4,40.6,31.1,73,66,45,30.11,29.99,30,7,30,0.00
2013-3-15,61.2,53.0,49.5,52.1,38.4,27.9,73,58,42,30.18,30.10,18,2,18,0.00
2013-3-16,53.7,46.7,38.8,45.3,32.5,18.1,74,58,43,30.11,29.86,26,3,26,0.05
2013-3-17,50.6,41.4,35.0,42.4,24.9,12.9,76,53,34,30.18,29.96,14,1,14,0.02
2013-3-18,53.1,44.1,37.0,42.1,34.0,22.6,76,68,49,30.23,30.07,20,3,20,0.00
2013-3-19,56.7,43.5,36.2,43.6,27.9,17.0,77,55,40,30.22,29.57,22,2,22,0.42
2013-3-20,54.3,48.1,38.4,45.5,32.3,21.5,76,57,33,29.99,29.32,34,8,34,0.55
2013-3-21,44.4,39.6,36.0,37.3,25.6,16.7,77,58,44,30.21,29.99,11,1,11,0.06
2013-3-22,47.9,39.2,31.0,38.9,26.1,16.5,78,60,39,30.37,30.20,13,1,13,0.01
2013-3-23,52.9,40.8,33.5,40.0,27.1,16.0,77,59,42,30.39,30.29,10,1,10,0.01
2013-3-24,56.9,42.1,33.4,41.9,27.9,13.6,76,58,37,30.29,30.11,9,1,9,0.00
2013-3-25,58.9,44.9,34.4,42.4,31.9,18.0,76,61,38,30.12,29.93,11,2,11,0.00
2013-3-26,57.6,47.9,40.2,45.6,36.1,25.5,77,64,48,30.00,29.94,9,1,9,0.00
2013-3-27,55.2,48.0,41.6,46.7,35.7,23.1,76,63,42,29.98,29.92,12,1,14,0.00
2013-3-28,61.2,50.1,43.7,51.3,31.4,19.2,72,50,31,30.13,29.98,10,1,10,0.05
2013-3-29,59.7,49.2,42.5,50.5,29.8,18.6,76,49,31,30.24,30.13,12,2,12,0.01
2013-3-30,60.5,50.7,42.8,49.9,33.2,15.7,72,53,31,30.25,30.06,18,2,18,0.00
2013-3-31,64.7,53.5,45.9,47.8,41.1,26.5,72,63,46,30.06,29.90,18,2,18,0.00
2013-4-1,62.7,51.3,44.8,52.7,32.5,20.9,73,50,32,30.12,29.94,12,1,12,0.00
2013-4-2,52.3,48.5,47.8,40.9,32.8,-99.9,72,59,40,30.18,30.12,10,-23,10,0.00
2013-4-3,58.7,48.2,46.1,51.2,27.2,-99.9,84,53,33,30.18,29.94,7,-54,7,0.00
2013-4-4,52.7,23.1,48.7,37.9,-39.1,-99.9,64,24,43,29.94,29.59,6,-539,6,0.03
2013-4-5,61.1,34.7,49.4,51.4,-6.8,-99.9,87,49,48,29.79,29.66,32,-351,32,0.03
2013-4-6,56.0,50.2,46.7,47.0,44.7,41.7,88,82,67,29.85,29.61,21,4,21,0.15
2013-4-7,48.6,45.5,42.8,44.8,42.0,39.4,92,87,85,29.86,29.50,11,1,11,0.86
2013-4-8,56.2,48.3,45.1,48.0,43.8,41.5,88,85,66,30.23,29.86,7,1,7,0.06
2013-4-9,54.0,49.0,43.8,45.2,42.9,40.5,92,80,66,30.30,30.11,14,2,14,0.00
2013-4-10,59.9,51.9,44.7,51.4,45.8,41.0,89,80,62,30.21,29.85,29,4,29,0.05
2013-4-11,53.7,48.1,44.7,43.2,41.1,38.0,88,77,58,30.25,30.16,12,0,12,0.00
2013-4-12,46.7,35.5,40.8,42.3,12.0,-99.9,92,68,77,30.16,29.62,22,-198,22,0.05
2013-4-13,52.8,38.6,38.5,45.7,23.1,-99.9,92,75,71,29.96,29.69,9,-117,10,0.10
2013-4-14,53.6,44.7,38.6,44.6,38.9,35.2,92,81,52,29.98,29.89,9,1,9,0.01
2013-4-15,55.0,45.7,37.8,45.1,39.7,34.5,92,80,63,30.15,29.91,13,1,13,0.01
2013-4-16,59.5,47.2,38.6,44.1,38.4,30.2,92,74,35,30.36,30.15,11,1,11,0.00
2013-4-17,57.2,47.1,39.3,46.7,41.0,35.7,88,80,61,30.41,30.36,10,1,10,0.00
2013-4-18,51.5,48.1,43.6,47.2,43.7,39.7,89,85,80,30.41,30.14,15,2,15,0.00
2013-4-19,54.2,51.6,49.4,50.4,47.8,45.7,87,87,86,30.15,30.01,13,1,13,0.18
2013-4-20,54.6,50.3,48.0,50.3,46.4,44.3,88,86,82,30.24,30.15,7,0,7,0.12
2013-4-21,56.2,44.9,41.9,47.6,33.3,-99.9,88,77,68,30.34,30.19,11,-68,11,0.10
2013-4-22,59.5,48.3,41.0,43.1,38.2,31.4,92,71,37,30.50,30.34,12,1,12,0.00
2013-4-23,61.2,48.1,36.9,44.6,38.3,31.3,92,72,35,30.40,30.22,12,1,12,0.00
2013-4-24,62.2,50.6,41.0,49.7,43.2,37.4,92,77,50,30.30,30.02,9,1,9,0.00
2013-4-25,65.3,52.3,42.8,52.1,44.8,39.2,87,77,51,30.11,30.01,7,1,7,0.00
2013-4-26,62.6,51.9,44.6,52.2,46.2,40.7,88,81,50,30.22,30.11,7,0,7,0.00
2013-4-27,57.6,52.5,49.1,49.9,47.3,45.4,87,82,73,30.17,30.10,14,1,14,0.17
2013-4-28,53.4,50.3,47.7,48.6,45.5,43.7,88,84,75,30.18,29.88,22,1,22,0.18
2013-4-29,56.7,49.7,44.9,45.7,39.4,33.6,87,68,49,30.11,29.87,15,2,15,0.02
2013-4-30,54.1,45.1,37.2,41.8,37.0,28.9,88,75,43,30.41,30.11,10,1,10,0.15
2013-5-1,62.4,47.7,37.6,45.9,39.1,34.1,92,74,38,30.55,30.41,9,1,9,0.00
2013-5-2,62.4,51.6,41.9,46.4,41.9,38.1,87,71,45,30.52,30.34,10,1,10,0.00
2013-5-3,48.4,16.8,48.2,42.1,-50.5,-99.9,79,2,1,30.36,30.19,0,-651,0,0.00
2013-5-4,72.3,60.4,48.2,51.0,48.0,42.0,84,65,1,30.21,29.97,13,1,13,0.00
2013-5-5,77.7,62.0,49.4,54.3,48.2,43.8,85,64,31,29.97,29.74,11,1,11,0.00
2013-5-6,77.0,49.1,49.9,55.6,23.9,-99.9,86,60,37,29.83,29.72,8,-176,8,0.00
2013-5-7,63.1,30.8,50.0,52.3,-13.8,-99.9,86,25,1,29.96,29.79,10,-417,10,0.00
2013-5-8,64.8,54.8,48.7,55.9,49.7,44.7,87,83,70,30.12,29.96,7,1,7,0.00
2013-5-9,62.9,52.1,46.6,54.3,45.8,-99.9,87,82,69,30.19,30.09,7,-13,7,0.01
2013-5-10,66.9,53.8,46.2,57.0,48.4,42.2,88,82,63,30.18,30.08,5,1,8,0.00
2013-5-11,70.5,57.1,49.2,59.1,50.9,45.5,87,80,55,30.14,29.95,9,0,9,0.00
2013-5-12,67.9,60.1,54.9,57.8,54.5,50.8,87,82,68,30.02,29.95,20,2,20,0.10
2013-5-13,64.8,57.6,48.2,56.2,50.0,39.7,87,76,52,30.14,29.87,26,3,26,0.00
2013-5-14,63.7,53.2,46.1,50.9,45.1,40.4,87,75,46,30.19,30.08,7,0,7,0.00
2013-5-15,63.3,52.2,47.0,51.9,43.8,-99.9,87,79,61,30.09,29.97,11,-23,11,0.03
2013-5-16,66.7,57.3,52.4,55.6,51.3,48.6,87,81,62,29.97,29.84,13,1,13,0.01
2013-5-17,65.4,56.3,52.9,52.9,50.2,48.9,87,80,60,30.01,29.90,13,1,13,0.01
2013-5-18,59.6,54.6,49.9,53.1,49.2,46.2,87,82,74,30.24,30.01,11,1,11,0.01
2013-5-19,63.5,46.3,48.5,53.1,24.7,-99.9,87,67,62,30.36,30.23,10,-164,10,0.01
2013-5-20,64.9,53.4,46.3,55.1,48.0,42.5,87,82,67,30.32,29.87,8,1,9,0.00
2013-5-21,54.8,50.0,47.4,49.5,46.0,43.5,87,86,81,29.88,29.74,8,0,8,0.37
2013-5-22,54.4,40.9,47.9,49.5,19.3,-99.9,88,70,81,29.90,29.81,9,-183,9,0.15
2013-5-23,58.2,50.3,46.3,49.5,44.9,42.5,88,82,68,29.96,29.88,14,1,14,0.01
2013-5-24,63.4,53.3,46.1,50.9,46.9,42.4,87,80,58,30.00,29.93,9,1,9,0.03
2013-5-25,62.7,54.6,50.0,52.4,48.5,46.3,87,80,63,30.00,29.94,12,1,12,0.09
2013-5-26,62.8,54.5,49.4,55.9,49.7,45.3,88,84,73,29.95,29.90,15,1,15,0.07
2013-5-27,60.6,55.9,51.6,55.3,51.5,47.6,87,85,80,29.90,29.65,21,2,21,0.04
2013-5-28,64.4,56.5,51.6,52.4,49.7,47.0,86,78,59,29.82,29.71,18,4,18,0.00
2013-5-29,54.8,52.3,50.9,50.4,48.3,47.2,87,86,83,29.92,29.66,6,0,6,0.22
2013-5-30,61.7,54.1,49.4,51.5,48.5,45.7,88,82,64,30.20,29.92,16,1,16,0.05
2013-5-31,65.0,55.1,48.2,51.8,48.3,44.5,88,79,55,30.31,30.21,8,1,8,0.01
2013-6-1,68.0,56.8,48.2,54.3,49.3,44.5,87,77,57,30.22,30.03,9,0,9,0.00
2013-6-2,68.0,58.9,52.0,55.9,50.7,47.3,87,75,59,30.06,30.00,9,1,9,0.03
2013-6-3,67.3,56.4,49.0,57.0,50.7,45.0,87,82,64,30.09,30.03,8,1,8,0.00
2013-6-4,75.2,60.5,49.4,55.9,50.4,45.4,87,72,45,30.10,30.00,12,1,12,0.00
2013-6-5,71.8,59.6,50.9,60.0,53.0,46.9,87,80,63,30.07,30.00,12,1,12,0.00
2013-6-6,71.7,58.5,50.4,57.3,51.6,46.4,87,78,55,30.03,29.97,10,1,10,0.00
2013-6-7,62.9,57.2,52.0,54.7,51.3,47.6,86,81,71,30.12,29.98,8,1,8,0.00
2013-6-8,65.5,53.7,51.8,53.6,38.3,-99.9,86,69,60,30.15,30.07,12,-79,12,0.00
2013-6-9,61.6,55.0,50.0,54.6,49.2,46.0,87,81,67,30.08,30.00,9,0,9,0.02
2013-6-10,67.0,54.2,46.2,55.0,43.0,-99.9,87,73,52,30.00,29.85,12,-37,12,0.00
2013-6-11,64.7,55.8,48.7,53.9,48.7,44.8,87,77,60,30.06,29.90,10,1,10,0.01
2013-6-12,66.8,54.4,48.0,55.8,49.0,44.0,87,82,56,30.11,30.06,11,0,11,0.11
2013-6-13,66.8,57.7,52.0,54.2,50.5,47.6,87,78,53,30.18,30.10,10,1,10,0.00
2013-6-14,65.7,56.8,50.5,55.3,50.7,46.8,87,81,59,30.20,30.03,11,1,11,0.00
2013-6-15,70.2,58.6,49.0,56.5,51.0,44.9,87,77,57,30.03,29.89,12,0,12,0.00
2013-6-16,68.4,58.8,51.0,58.0,52.8,47.2,87,81,66,30.06,29.95,10,1,10,0.00
2013-6-17,75.9,60.4,51.3,58.2,52.4,47.3,87,76,47,30.06,29.86,10,1,10,0.10
2013-6-18,71.4,61.4,54.7,55.8,52.4,48.2,87,74,45,29.93,29.84,13,1,13,0.00
2013-6-19,65.0,58.4,52.9,57.5,52.5,48.7,87,81,68,29.97,29.88,5,0,5,0.00
2013-6-20,58.0,55.6,54.3,53.8,51.5,50.1,87,86,85,30.07,29.92,7,0,7,0.52
2013-6-21,66.3,58.5,52.7,58.4,52.6,48.9,87,81,63,30.13,30.07,8,1,8,0.01
2013-6-22,73.0,60.2,50.8,59.3,52.9,46.7,87,78,53,30.10,29.83,8,0,8,0.00
2013-6-23,70.0,60.0,54.7,62.2,55.3,50.9,87,85,70,29.83,29.56,5,0,5,0.06
2013-6-24,68.7,60.9,55.5,58.3,55.2,51.6,87,82,66,29.65,29.53,11,2,15,0.09
2013-6-25,70.5,61.0,57.1,60.7,55.3,53.0,87,82,65,29.80,29.63,17,2,17,0.40
2013-6-26,70.8,62.6,55.5,61.5,56.2,51.5,87,80,68,30.03,29.80,15,2,15,0.03
2013-6-27,69.7,63.3,58.3,63.0,58.3,53.9,87,84,76,30.16,30.01,15,2,15,0.06
2013-6-28,76.2,63.4,55.8,65.9,57.7,51.7,87,82,68,30.16,30.01,10,1,10,0.00
2013-6-29,74.3,64.3,57.2,64.2,58.1,53.0,87,81,64,30.07,29.96,8,1,8,0.00
2013-6-30,77.3,63.4,55.2,65.4,57.3,51.1,87,81,65,29.99,29.82,9,1,9,0.00
2013-7-1,77.8,62.8,56.7,65.5,57.1,52.6,87,82,62,29.99,29.88,8,1,8,0.00
2013-7-2,76.7,62.6,55.7,62.0,56.0,51.6,87,80,54,30.08,29.99,11,1,11,0.00
2013-7-3,72.1,62.0,53.8,60.0,54.1,49.7,87,76,51,30.13,30.01,12,1,12,0.00
2013-7-4,71.5,60.6,53.9,58.8,54.0,49.8,87,80,60,30.09,30.00,8,1,8,0.00
2013-7-5,74.3,61.8,52.5,60.5,54.4,48.4,87,78,58,30.01,29.91,7,0,7,0.00
2013-7-6,76.6,63.0,52.7,59.3,53.7,48.6,87,74,47,29.95,29.83,11,1,11,0.00
2013-7-7,71.7,60.9,53.0,62.7,55.3,48.9,87,82,68,29.92,29.84,7,1,7,0.00
2013-7-8,74.2,61.9,55.3,62.9,55.7,51.4,87,81,60,30.06,29.91,6,1,7,0.00
2013-7-9,76.2,60.8,53.0,60.6,54.0,48.7,87,80,53,30.09,29.96,10,1,10,0.00
2013-7-10,69.3,60.0,53.6,61.5,53.8,49.6,87,80,64,30.03,29.92,8,1,8,0.00
2013-7-11,65.8,58.7,52.1,55.4,51.4,47.9,86,77,64,30.05,29.95,9,1,9,0.00
2013-7-12,66.8,57.2,49.4,57.4,51.2,45.7,87,81,64,30.07,29.98,6,0,6,0.00
2013-7-13,74.3,59.2,48.8,58.0,50.5,44.8,87,75,44,30.18,30.07,9,1,9,0.00
2013-7-14,74.0,60.5,50.1,58.0,51.2,46.1,87,73,41,30.12,29.96,11,1,11,0.00
2013-7-15,78.9,64.6,51.4,56.9,51.7,47.3,87,66,35,30.03,29.86,14,1,14,0.00
2013-7-16,83.5,66.7,54.3,59.8,53.8,49.6,86,66,37,29.87,29.76,12,0,12,0.00
2013-7-17,74.4,65.4,59.5,59.4,56.8,53.9,85,74,57,30.15,29.83,10,2,16,0.00
2013-7-18,72.3,62.3,55.2,58.7,55.0,51.0,86,78,60,30.20,30.09,10,1,10,0.00
2013-7-19,72.5,60.6,52.8,60.6,54.3,48.5,87,80,63,30.15,30.01,9,1,9,0.00
2013-7-20,69.4,59.4,54.2,60.6,54.3,50.1,87,83,70,30.06,29.93,8,0,8,0.00
2013-7-21,73.9,59.8,52.4,62.6,54.2,48.3,87,82,66,29.95,29.86,7,0,7,0.00
2013-7-22,75.8,61.8,53.9,62.5,55.5,49.7,87,80,61,30.03,29.90,9,1,9,0.00
2013-7-23,70.9,59.3,53.1,60.1,53.4,48.7,87,81,61,30.05,29.94,8,1,8,0.00
2013-7-24,76.1,59.1,52.1,59.5,52.8,48.0,87,81,51,30.03,29.96,8,1,8,0.00
2013-7-25,76.1,59.8,50.6,61.3,53.1,46.3,87,79,56,30.08,30.00,12,1,12,0.00
2013-7-26,77.2,60.6,51.3,59.6,52.3,47.3,87,76,46,30.12,30.04,9,1,9,0.00
2013-7-27,76.5,60.0,50.5,59.3,52.4,46.6,87,77,45,30.13,29.96,7,0,7,0.00
2013-7-28,71.7,60.3,51.7,60.2,53.7,47.7,87,79,63,29.99,29.90,10,1,10,0.00
2013-7-29,69.6,60.8,54.0,60.6,54.8,49.9,87,81,69,29.97,29.91,8,1,8,0.00
2013-7-30,70.8,59.6,51.8,61.0,53.7,47.8,87,81,64,30.10,29.97,8,1,8,0.00
2013-7-31,70.1,59.1,53.7,61.6,54.2,49.6,87,84,74,30.09,29.96,7,0,7,0.00
2013-8-1,69.4,61.5,53.6,58.9,55.3,49.5,87,80,68,30.02,29.97,10,1,10,0.00
2013-8-2,60.6,59.2,57.3,56.3,54.9,53.2,87,86,84,30.10,30.01,4,0,4,0.19
2013-8-3,72.5,62.3,55.9,60.5,56.1,51.8,87,81,64,30.10,30.02,8,1,8,0.00
2013-8-4,77.7,61.6,54.1,62.5,55.0,49.4,87,80,55,30.04,29.91,10,1,10,0.00
2013-8-5,75.0,60.7,52.6,61.1,54.1,48.2,87,80,61,29.99,29.90,9,1,9,0.00
2013-8-6,74.6,50.5,52.4,59.6,26.2,-99.9,87,63,53,29.98,29.89,6,-173,9,0.00
2013-8-7,74.0,54.9,51.1,60.5,40.6,-99.9,87,73,57,29.98,29.91,8,-82,8,0.00
2013-8-8,77.2,57.2,54.1,63.8,43.0,-99.9,87,73,53,30.00,29.91,8,-79,8,0.00
2013-8-9,69.0,58.8,53.5,60.8,53.8,48.9,87,84,75,29.93,29.80,8,1,8,0.00
2013-8-10,76.7,62.2,56.3,65.2,56.8,52.1,87,83,65,29.99,29.84,8,0,8,0.05
2013-8-11,70.2,60.7,56.1,60.6,55.4,52.1,87,83,69,30.03,29.96,8,1,8,0.01
2013-8-12,75.6,61.9,54.5,61.6,55.5,50.3,87,80,60,30.04,29.97,10,0,10,0.00
2013-8-13,75.7,62.3,54.3,60.7,54.8,50.1,87,77,57,30.07,29.89,10,1,10,0.00
2013-8-14,80.5,63.0,53.4,62.2,56.1,49.3,87,79,50,29.91,29.84,9,1,10,0.04
2013-8-15,65.0,62.6,59.9,60.7,58.3,55.5,87,86,85,29.96,29.88,7,0,7,0.01
2013-8-16,81.7,66.4,58.9,65.8,58.9,54.7,87,78,48,29.97,29.90,10,0,10,0.01
2013-8-17,73.8,63.7,57.7,63.8,57.4,53.4,87,81,66,30.04,29.96,9,1,9,0.00
2013-8-18,73.3,63.0,57.6,61.6,56.9,53.4,86,81,65,30.08,30.04,12,1,12,0.00
2013-8-19,75.5,64.1,57.9,61.7,56.4,52.1,87,77,58,30.07,30.03,11,1,11,0.00
2013-8-20,74.6,61.5,53.1,57.9,53.3,48.9,87,76,51,30.14,30.04,12,1,12,0.00
2013-8-21,77.2,62.5,50.7,58.5,52.6,46.7,87,72,46,30.07,29.90,10,1,11,0.00
2013-8-22,70.5,60.2,52.2,59.3,53.7,48.1,87,80,65,29.92,29.76,9,0,9,0.00
2013-8-23,70.8,61.7,55.3,61.1,55.9,51.2,87,82,67,29.85,29.79,8,0,8,0.00
2013-8-24,71.1,61.8,56.0,60.1,56.0,51.9,87,82,63,29.89,29.83,9,0,9,0.00
2013-8-25,65.0,58.4,52.6,57.8,53.4,48.3,87,84,72,29.92,29.83,9,0,9,0.00
2013-8-26,75.7,57.2,53.1,60.6,41.7,-99.9,87,71,44,29.91,29.79,21,-81,21,0.02
2013-8-27,76.9,65.0,58.8,62.2,57.8,54.3,86,78,57,29.91,29.76,12,2,13,0.03
2013-8-28,77.8,65.0,57.8,65.9,58.6,53.3,87,80,62,29.86,29.78,10,0,10,0.15
2013-8-29,74.5,65.4,60.2,66.2,60.4,55.6,87,84,75,29.93,29.81,22,2,22,0.55
2013-8-30,75.1,65.1,57.1,62.3,58.2,53.0,87,79,58,30.09,29.93,14,1,17,0.00
2013-8-31,73.8,62.4,54.7,60.8,55.6,50.3,87,79,61,30.06,29.81,11,0,11,0.00
2013-9-1,74.5,63.0,55.7,62.5,56.0,51.1,87,79,58,29.86,29.76,9,0,9,0.00
2013-9-2,75.3,62.9,56.8,61.3,56.5,52.4,87,80,58,29.91,29.82,8,1,8,0.00
2013-9-3,67.7,61.3,57.1,62.2,56.5,52.6,87,84,81,30.00,29.90,5,0,6,0.12
2013-9-4,69.3,60.8,56.0,62.8,56.1,51.2,87,85,78,30.02,29.97,7,0,7,0.02
2013-9-5,66.5,60.4,56.8,61.8,55.7,52.0,87,85,82,30.01,29.87,10,0,10,0.27
2013-9-6,70.0,63.4,60.7,64.3,58.7,55.8,87,85,81,30.05,29.89,10,0,11,1.13
2013-9-7,72.2,62.2,57.3,62.7,57.3,52.9,87,84,71,30.06,29.99,8,1,8,0.00
2013-9-8,72.5,60.1,55.0,63.7,54.9,50.2,88,83,71,30.08,29.99,7,0,7,0.01
2013-9-9,70.3,58.9,55.5,62.0,54.1,50.7,88,84,73,30.04,29.94,8,1,8,0.00
2013-9-10,74.8,62.1,53.9,63.8,56.1,49.2,88,81,64,29.97,29.85,12,0,12,0.01
2013-9-11,73.3,62.2,55.9,63.6,56.6,51.5,88,82,67,29.92,29.84,7,0,7,0.00
2013-9-12,71.2,59.4,54.1,62.1,54.6,50.0,88,84,72,29.97,29.87,7,0,7,0.00
2013-9-13,63.7,59.2,54.5,60.1,54.8,50.2,88,85,83,29.93,29.83,2,0,2,0.01
2013-9-14,67.0,59.3,55.7,60.8,55.1,51.5,88,86,79,29.85,29.71,8,1,8,0.00
2013-9-15,62.3,58.1,54.1,58.7,53.8,49.7,88,86,83,29.77,29.68,6,0,7,0.32
2013-9-16,64.6,60.1,56.5,60.3,56.1,52.0,88,87,84,29.89,29.75,12,1,12,0.21
2013-9-17,63.1,57.5,54.2,57.0,53.1,50.1,89,85,77,29.90,29.83,3,0,3,0.00
2013-9-18,69.0,57.3,51.2,57.8,51.5,46.8,89,82,58,30.03,29.90,6,0,6,0.01
2013-9-19,76.3,59.3,49.3,58.0,51.3,45.3,89,77,39,30.01,29.71,0,0,0,0.00
2013-9-20,70.7,59.1,50.6,58.3,53.2,46.9,89,81,61,29.71,29.55,17,1,17,0.02
2013-9-21,67.5,58.4,53.5,58.2,53.7,49.5,88,85,68,29.68,29.61,6,0,6,0.00
2013-9-22,62.1,57.7,53.8,56.7,53.6,49.6,88,86,76,29.67,29.50,25,4,25,0.09
2013-9-23,57.8,55.0,51.4,54.0,51.2,47.1,88,87,85,29.93,29.67,12,1,15,0.17
2013-9-24,60.9,53.3,50.5,54.0,49.0,46.2,89,85,77,29.92,29.80,10,0,10,0.49
2013-9-25,61.3,52.9,48.0,52.9,48.1,44.3,89,84,67,29.99,29.83,8,1,12,0.06
2013-9-26,63.0,51.6,45.9,53.3,46.7,41.8,89,84,65,30.09,29.99,6,0,6,0.00
2013-9-27,57.4,54.4,48.3,53.1,50.7,44.6,89,87,84,30.07,29.79,24,3,24,0.03
2013-9-28,59.9,56.1,52.6,56.3,52.6,49.2,89,88,85,29.79,29.24,26,5,26,0.85
2013-9-29,56.6,53.5,51.4,52.5,50.1,47.5,89,88,84,29.48,29.08,24,5,24,0.50
2013-9-30,61.2,53.5,49.3,52.8,48.5,45.9,89,84,68,29.85,29.34,13,3,15,0.02
2013-10-1,58.2,52.6,48.8,50.0,47.3,45.6,89,83,67,30.06,29.85,16,3,20,0.02
2013-10-2,53.6,50.9,47.9,49.5,47.4,43.9,89,87,85,30.14,30.01,15,1,15,0.06
2013-10-3,58.8,51.6,45.3,50.6,46.6,41.8,89,83,71,30.42,30.14,8,0,8,0.00
2013-10-4,61.2,49.8,44.1,53.3,45.5,40.1,90,85,73,30.44,30.31,5,0,5,0.01
2013-10-5,66.3,52.3,46.1,54.0,47.0,42.2,89,83,56,30.32,30.09,7,0,7,0.00
2013-10-6,73.5,57.8,43.8,54.2,46.2,39.9,89,68,36,30.09,29.81,18,3,18,0.01
2013-10-7,58.9,54.2,51.2,53.2,50.5,47.2,89,87,76,29.97,29.80,18,2,18,0.22
2013-10-8,59.0,51.3,45.4,50.9,46.3,42.3,90,83,64,30.04,29.92,12,0,12,0.03
2013-10-9,59.0,49.8,45.1,50.0,45.4,41.8,90,85,64,30.10,29.92,3,0,5,0.00
2013-10-10,55.8,50.4,47.5,51.4,46.8,44.1,89,88,83,30.04,29.90,7,0,7,0.01
2013-10-11,55.1,50.6,48.0,50.5,46.8,44.0,90,87,79,30.10,30.03,4,0,5,0.11
2013-10-12,58.0,50.9,46.3,52.2,46.7,42.4,90,86,76,30.18,30.03,9,0,9,0.15
2013-10-13,59.6,49.3,43.8,50.3,44.3,39.9,90,83,65,30.33,30.18,9,0,9,0.01
2013-10-14,59.1,49.2,42.7,50.3,44.3,39.1,90,84,64,30.40,30.33,7,0,7,0.00
2013-10-15,58.4,49.1,43.1,51.9,45.1,39.5,90,86,74,30.36,30.15,7,0,7,0.01
2013-10-16,59.9,51.1,45.1,52.3,47.0,41.7,90,86,75,30.17,30.12,8,0,8,0.00
2013-10-17,58.1,50.1,44.6,51.6,45.8,41.1,90,85,76,30.25,30.17,9,0,9,0.00
2013-10-18,55.9,48.0,44.5,51.0,44.2,41.0,90,87,83,30.23,30.12,6,0,7,0.00
2013-10-19,49.3,47.4,45.3,45.6,43.5,41.3,89,86,85,30.17,30.12,7,0,7,0.01
2013-10-20,50.1,48.7,47.9,47.2,45.7,44.6,90,89,88,30.18,30.12,6,0,6,0.00
2013-10-21,50.1,46.5,47.9,47.3,38.6,-99.9,90,84,86,30.14,30.07,7,-48,7,0.00
2013-10-22,51.4,48.8,47.2,48.5,45.1,43.2,90,87,85,30.10,30.00,6,0,6,0.00
2013-10-23,54.8,48.0,43.8,50.7,44.4,40.4,91,87,85,30.03,29.95,7,0,7,0.01
2013-10-24,50.0,47.6,43.5,46.0,43.7,40.0,88,86,85,30.10,30.00,5,0,5,0.01
2013-10-25,53.7,49.7,45.8,50.5,46.1,42.5,91,88,85,30.30,30.10,4,0,5,0.01
2013-10-26,56.0,50.5,45.8,51.2,46.5,42.5,91,86,80,30.31,30.17,11,0,11,0.00
2013-10-27,58.4,52.4,48.2,50.0,46.2,42.3,90,80,65,30.17,29.87,20,1,20,0.19
2013-10-28,57.2,52.6,45.9,44.3,39.6,35.1,75,62,47,29.93,29.87,20,1,20,0.00
2013-10-29,59.3,45.9,38.2,45.7,40.3,35.2,90,82,50,30.00,29.91,4,0,4,0.00
2013-10-30,54.6,48.0,39.5,48.8,43.0,36.5,90,83,73,30.09,30.00,20,2,20,0.00
2013-10-31,55.1,51.3,49.9,51.2,47.7,44.8,90,87,81,30.23,30.02,18,1,18,0.01
2013-11-1,58.7,53.7,49.6,52.8,49.6,46.2,90,86,78,30.24,29.78,14,1,14,0.00
2013-11-2,54.6,49.2,43.8,50.8,45.8,40.6,91,88,84,29.86,29.36,30,3,30,0.35
2013-11-3,50.7,42.9,38.4,46.9,39.8,35.2,91,89,84,30.08,29.85,4,0,4,0.01
2013-11-4,49.1,43.6,38.0,44.1,39.4,34.9,91,85,70,30.17,30.01,8,0,8,0.02
2013-11-5,47.9,45.4,44.7,44.4,39.6,-99.9,90,86,86,30.23,29.98,7,-24,7,0.11
2013-11-6,50.0,47.3,44.1,47.5,43.8,40.2,91,88,85,30.30,29.99,9,0,9,0.01
2013-11-7,52.9,49.7,47.7,50.0,46.6,44.6,90,89,86,29.98,29.66,25,3,25,0.42
2013-11-8,55.2,48.3,42.7,49.0,44.5,39.5,91,87,75,30.12,29.93,7,0,7,0.00
2013-11-9,49.4,45.8,42.9,45.8,42.5,39.4,91,88,86,30.13,30.05,4,0,4,0.04
2013-11-10,49.2,47.1,44.9,46.4,43.8,41.8,91,88,86,30.14,30.08,8,0,8,0.06
2013-11-11,57.6,47.6,43.4,51.2,44.2,39.8,91,88,74,30.14,29.97,4,0,4,0.00
2013-11-12,57.3,52.9,46.1,53.6,49.1,43.3,91,87,67,30.30,29.98,19,2,19,0.10
2013-11-13,56.1,51.3,47.9,50.8,48.0,44.8,90,89,81,30.40,30.28,11,0,11,0.00
2013-11-14,53.2,45.4,43.9,48.8,36.4,-99.9,91,83,85,30.28,30.03,4,-58,4,0.01
2013-11-15,48.6,44.7,43.6,46.0,39.7,-99.9,91,87,87,30.04,29.30,12,-19,12,0.12
2013-11-16,48.3,43.3,38.9,43.6,39.8,35.8,91,87,78,29.74,29.30,9,0,9,0.01
2013-11-17,54.7,46.3,38.0,49.3,43.2,35.4,91,89,80,29.86,29.73,18,2,18,0.00
2013-11-18,52.2,48.4,47.1,49.3,43.2,-99.9,91,88,88,29.85,29.49,19,-22,19,0.23
2013-11-19,52.3,42.3,35.6,49.5,39.0,27.0,91,88,62,30.06,29.50,11,0,12,0.33
2013-11-20,44.8,37.5,32.4,34.7,31.5,27.9,91,79,56,30.49,30.06,13,1,13,0.00
2013-11-21,44.9,34.1,31.2,34.3,25.8,-99.9,91,81,57,30.65,30.49,8,-34,8,0.01
2013-11-22,46.0,35.8,31.8,37.4,29.3,-99.9,91,83,67,30.64,30.44,5,-24,7,0.01
2013-11-23,48.5,39.0,33.5,41.9,35.5,30.7,91,87,75,30.43,30.18,5,0,5,0.00
2013-11-24,50.5,40.9,36.0,45.0,37.4,32.5,91,87,78,30.23,30.15,9,0,9,0.00
2013-11-25,49.0,41.2,37.8,44.0,37.8,34.4,91,87,81,30.29,30.23,5,0,5,0.01
2013-11-26,50.4,42.0,37.7,44.2,36.3,-99.9,91,85,79,30.25,30.07,5,-24,6,0.01
2013-11-27,53.3,41.8,39.5,46.9,31.2,-99.9,91,81,73,30.07,29.94,4,-72,6,0.00
2013-11-28,48.4,41.4,37.5,45.2,38.0,34.3,91,88,85,30.15,30.00,5,0,5,0.00
2013-11-29,48.5,44.9,41.2,45.3,41.7,37.7,91,89,86,30.28,30.15,6,0,6,0.00
2013-11-30,50.5,48.9,46.8,47.5,45.8,44.0,91,89,86,30.28,30.02,17,3,17,0.00
2013-12-1,54.0,49.0,41.1,50.2,46.1,38.4,91,90,82,30.02,29.71,18,2,18,0.21
2013-12-2,45.0,38.6,35.0,39.5,35.4,28.5,91,88,73,30.05,29.77,12,1,12,0.12
2013-12-3,40.3,35.8,30.3,31.4,27.2,22.9,90,71,52,30.29,30.05,22,2,22,0.00
2013-12-4,40.0,28.2,28.0,29.3,12.0,-99.9,91,72,53,30.34,30.28,8,-114,8,0.00
2013-12-5,35.0,15.6,28.0,29.9,-37.5,-99.9,91,41,71,30.30,30.17,7,-510,7,0.00
2013-12-6,34.7,12.4,23.4,17.9,-53.7,-99.9,75,21,42,30.24,30.14,9,-598,9,0.00
2013-12-7,33.0,19.7,21.1,18.0,-13.8,-99.9,85,47,40,30.40,30.23,12,-249,12,0.00
2013-12-8,35.4,12.2,21.4,22.7,-46.8,-99.9,87,33,55,30.54,30.39,5,-556,5,0.00
2013-12-9,-200.0,0.0,200.0,-99.9,-99.9,-99.9,0,0,100,30.56,30.46,0,-999,0,0.00
2013-12-10,-200.0,0.0,200.0,-99.9,-99.9,-99.9,0,0,100,30.47,30.39,0,-999,0,0.00
2013-12-11,39.7,13.5,34.1,37.0,-51.3,-99.9,91,32,86,30.39,30.14,5,-637,5,0.00
2013-12-12,45.1,11.6,42.1,40.0,-62.9,-99.9,89,23,74,30.14,29.97,18,-731,21,0.00
2013-12-13,46.3,13.7,44.1,43.5,-57.0,-99.9,91,27,89,30.37,30.09,7,-698,7,0.00
2013-12-14,47.2,3.6,46.7,44.4,-88.9,-99.9,90,7,89,30.40,30.28,7,-923,7,0.00
2013-12-15,50.1,7.0,48.9,47.0,-79.3,-99.9,90,13,88,30.42,30.28,3,-858,3,0.00
2013-12-16,51.7,19.6,40.1,46.6,-39.9,-99.9,91,37,80,30.47,30.24,5,-581,5,0.00
2013-12-17,42.9,9.5,41.5,40.5,-68.6,-99.9,91,20,90,30.24,30.08,8,-775,8,0.00
2013-12-18,46.7,13.9,37.8,35.9,-57.4,-99.9,86,22,52,30.15,29.99,14,-681,14,0.00
2013-12-19,40.4,14.6,35.3,29.7,-51.1,-99.9,79,26,57,30.33,30.15,6,-613,6,0.00
2013-12-20,38.0,5.0,35.0,35.5,-81.9,-99.9,91,12,90,30.17,29.68,19,-861,19,0.07
2013-12-21,43.7,11.5,42.5,40.1,-62.9,-99.9,87,23,86,30.14,29.83,2,-734,2,0.02
2013-12-22,47.7,11.8,46.3,43.7,-64.3,-99.9,86,21,85,30.26,30.13,2,-750,2,0.00
2013-12-23,51.7,19.1,41.1,48.7,-41.5,-99.9,91,36,83,30.50,30.09,13,-594,13,0.05
2013-12-24,48.8,18.8,37.9,43.2,-39.9,-99.9,91,37,76,30.59,30.50,5,-570,5,0.00
2013-12-25,45.1,16.0,36.7,40.9,-46.6,-99.9,92,34,82,30.51,30.37,4,-613,4,0.00
2013-12-26,45.8,11.2,37.7,42.1,-63.0,-99.9,92,24,86,30.38,30.18,6,-734,6,0.00
2013-12-27,44.6,8.3,41.5,41.5,-72.9,-99.9,90,17,86,30.34,30.06,5,-806,5,0.01
2013-12-28,48.1,13.7,41.0,44.3,-56.9,-99.9,92,27,84,30.50,30.34,4,-697,4,0.00
2013-12-29,-200.0,0.0,200.0,-99.9,-99.9,-99.9,0,0,100,30.46,30.38,0,-999,0,0.00